Airfield :
LOGIN :

Register | Disclaimer

   EN    FR    IT 

 










Legend :    VFR   Marginal VFR   IFR   Intensive IFR   Very Intensive IFR
Visi :
Ceiling :
>= 8 km
>= 3000ft
5 to 8 km
1000 to 3000 ft
1500m to 5 km
500 to 1000 ft
800 to 1500m
200 to 500 ft
< 800m
< 200 ft
Symbols :   Thunderstorms  Fog  Heavy snow  Heavy precipitations  Wind > 20 kt
SIGMETs :     Misc.  Thunderstorms  Icing  Turbulence  Mountain Waves  Volcanic Ashes






- Airport Elevation : 1202 ft
- IATA code : IGS


ETSI - Ingolstadt

CURRENT METAR :
  • 271720Z 15004KT 1800 R25/4200U SN OVC006 00/M00 Q0993 YLO

EXPIRED METARs :
  • 271709Z 14004KT 0900 R25/2800D +SN OVC006 00/M00 Q0993 AMB
  • 271639Z 14005KT 0600 R25/2200D +SN OVC006 00/M00 Q0994 RED
  • 271623Z 16005KT 1200 R25/2800D SN OVC007 01/M00 Q0995 AMB
  • 271611Z 17007KT 1500 R25/3000D SN OVC009 01/M00 Q0995 AMB YLO TEMPO RED
  • 271546Z 18009KT 2800 SN OVC020 02/M01 Q0996 YLO YLO TEMPO RED
  • 271530Z 18011KT 3500 SN OVC025 03/M02 Q0996 YLO YLO TEMPO RED
  • 271513Z 18007KT 7000 -SN OVC040 04/M04 Q0996 WHT WHT BECMG YLO

TAF AMD TAF ETSI
Valid from the 27 at 15:00 until the 28 at 00:00 UTC


271553Z 2715/2724 18008KT 9999 NSW SCT020 OVC050
BECMG 2715/2716 16010KT 3000 SN SCT015 OVC040
TEMPO 2716/2720 17010KT 0300 +SN VV003 OVC010
BECMG 2719/2720 26015G35KT 4000 SNRA BKN007 OVC015
TEMPO 2720/2724 28025G45KT 0500 +SN BKN004 OVC010 CANCEL 1620



MET'MAP, your aeronautical weather chart ! - Copyright ORBIFLY December 2007 - Disclaimer

ORBIFLY MET'MAP TEAM :

Programming & Development : Alexandra Zaïnal
Concept & original design : Baudouin d'Aumeries
Assistance for programming : Marc-Olivier Méhu
Technical & hardware support : Manuel Goepfert

Contact : metmap@orbifly.com




SOURCES & CREDITS :

   NOAA